sensor_id;sensor_type;location;lat;lon;timestamp;P1;durP1;ratioP1;P2;durP2;ratioP2
54641;SDS011;40536;53.194;5.728;2023-11-19T00:02:20;483.10;;;454.55;;
54641;SDS011;40536;53.194;5.728;2023-11-19T00:04:47;494.67;;;466.90;;
54641;SDS011;40536;53.194;5.728;2023-11-19T00:07:14;487.60;;;459.88;;
54641;SDS011;40536;53.194;5.728;2023-11-19T00:09:40;506.90;;;478.08;;
54641;SDS011;40536;53.194;5.728;2023-11-19T00:12:06;517.13;;;487.70;;
54641;SDS011;40536;53.194;5.728;2023-11-19T00:14:32;508.83;;;478.45;;
54641;SDS011;40536;53.194;5.728;2023-11-19T00:16:58;556.97;;;522.88;;
54641;SDS011;40536;53.194;5.728;2023-11-19T00:19:24;534.65;;;503.02;;
54641;SDS011;40536;53.194;5.728;2023-11-19T00:21:49;537.72;;;506.20;;
54641;SDS011;40536;53.194;5.728;2023-11-19T00:24:15;695.40;;;647.53;;
54641;SDS011;40536;53.194;5.728;2023-11-19T00:26:42;501.52;;;471.40;;
54641;SDS011;40536;53.194;5.728;2023-11-19T00:29:08;573.88;;;539.22;;
54641;SDS011;40536;53.194;5.728;2023-11-19T00:31:34;546.75;;;514.05;;
54641;SDS011;40536;53.194;5.728;2023-11-19T00:34:00;546.25;;;514.25;;
54641;SDS011;40536;53.194;5.728;2023-11-19T00:36:27;707.65;;;660.22;;
54641;SDS011;40536;53.194;5.728;2023-11-19T00:38:53;585.30;;;549.28;;
54641;SDS011;40536;53.194;5.728;2023-11-19T00:41:19;525.33;;;493.65;;
54641;SDS011;40536;53.194;5.728;2023-11-19T00:43:45;519.40;;;488.63;;
54641;SDS011;40536;53.194;5.728;2023-11-19T00:46:11;517.50;;;486.85;;
54641;SDS011;40536;53.194;5.728;2023-11-19T00:48:37;493.92;;;464.67;;
54641;SDS011;40536;53.194;5.728;2023-11-19T00:51:03;545.05;;;512.83;;
54641;SDS011;40536;53.194;5.728;2023-11-19T00:53:29;550.08;;;516.95;;
54641;SDS011;40536;53.194;5.728;2023-11-19T00:55:55;514.17;;;484.90;;
54641;SDS011;40536;53.194;5.728;2023-11-19T00:58:22;516.38;;;484.92;;
54641;SDS011;40536;53.194;5.728;2023-11-19T01:00:47;518.35;;;487.92;;
54641;SDS011;40536;53.194;5.728;2023-11-19T01:03:17;501.75;;;472.50;;
54641;SDS011;40536;53.194;5.728;2023-11-19T01:05:44;515.30;;;486.00;;
54641;SDS011;40536;53.194;5.728;2023-11-19T01:08:12;505.38;;;476.20;;
54641;SDS011;40536;53.194;5.728;2023-11-19T01:10:37;521.22;;;490.10;;
54641;SDS011;40536;53.194;5.728;2023-11-19T01:13:03;481.92;;;454.85;;
54641;SDS011;40536;53.194;5.728;2023-11-19T01:15:31;502.02;;;473.58;;
54641;SDS011;40536;53.194;5.728;2023-11-19T01:17:57;503.40;;;474.05;;
54641;SDS011;40536;53.194;5.728;2023-11-19T01:20:23;481.50;;;453.08;;
54641;SDS011;40536;53.194;5.728;2023-11-19T01:22:48;472.83;;;445.95;;
54641;SDS011;40536;53.194;5.728;2023-11-19T01:25:14;481.55;;;454.15;;
54641;SDS011;40536;53.194;5.728;2023-11-19T01:27:40;506.60;;;475.95;;
54641;SDS011;40536;53.194;5.728;2023-11-19T01:30:07;463.48;;;435.92;;
54641;SDS011;40536;53.194;5.728;2023-11-19T01:32:35;457.02;;;430.90;;
54641;SDS011;40536;53.194;5.728;2023-11-19T01:35:02;474.90;;;447.77;;
54641;SDS011;40536;53.194;5.728;2023-11-19T01:37:29;454.55;;;428.23;;
54641;SDS011;40536;53.194;5.728;2023-11-19T01:39:54;455.23;;;429.55;;
54641;SDS011;40536;53.194;5.728;2023-11-19T01:42:20;460.05;;;433.98;;
54641;SDS011;40536;53.194;5.728;2023-11-19T01:44:57;473.50;;;445.95;;
54641;SDS011;40536;53.194;5.728;2023-11-19T01:47:24;440.08;;;414.13;;
54641;SDS011;40536;53.194;5.728;2023-11-19T01:49:51;449.67;;;423.80;;
54641;SDS011;40536;53.194;5.728;2023-11-19T01:52:17;471.50;;;444.88;;
54641;SDS011;40536;53.194;5.728;2023-11-19T01:54:43;461.95;;;436.10;;
54641;SDS011;40536;53.194;5.728;2023-11-19T01:57:10;480.88;;;452.88;;
54641;SDS011;40536;53.194;5.728;2023-11-19T01:59:36;447.45;;;422.73;;
54641;SDS011;40536;53.194;5.728;2023-11-19T02:02:03;479.52;;;452.95;;
54641;SDS011;40536;53.194;5.728;2023-11-19T02:04:30;486.35;;;457.92;;
54641;SDS011;40536;53.194;5.728;2023-11-19T02:06:58;450.70;;;424.77;;
54641;SDS011;40536;53.194;5.728;2023-11-19T02:09:24;469.63;;;443.33;;
54641;SDS011;40536;53.194;5.728;2023-11-19T02:11:49;486.50;;;459.00;;
54641;SDS011;40536;53.194;5.728;2023-11-19T02:14:16;468.70;;;442.83;;
54641;SDS011;40536;53.194;5.728;2023-11-19T02:16:43;470.05;;;443.40;;
54641;SDS011;40536;53.194;5.728;2023-11-19T02:19:09;482.20;;;455.05;;
54641;SDS011;40536;53.194;5.728;2023-11-19T02:21:37;457.77;;;430.92;;
54641;SDS011;40536;53.194;5.728;2023-11-19T02:24:03;463.23;;;437.08;;
54641;SDS011;40536;53.194;5.728;2023-11-19T02:26:41;425.50;;;401.60;;
54641;SDS011;40536;53.194;5.728;2023-11-19T02:29:07;483.02;;;454.15;;
54641;SDS011;40536;53.194;5.728;2023-11-19T02:31:33;466.52;;;439.30;;
54641;SDS011;40536;53.194;5.728;2023-11-19T02:34:00;448.30;;;422.27;;
54641;SDS011;40536;53.194;5.728;2023-11-19T02:36:27;450.92;;;425.48;;
54641;SDS011;40536;53.194;5.728;2023-11-19T02:38:53;441.25;;;416.08;;
54641;SDS011;40536;53.194;5.728;2023-11-19T02:41:18;461.02;;;434.83;;
54641;SDS011;40536;53.194;5.728;2023-11-19T02:43:45;477.35;;;450.05;;
54641;SDS011;40536;53.194;5.728;2023-11-19T02:46:13;488.65;;;459.77;;
54641;SDS011;40536;53.194;5.728;2023-11-19T02:48:39;452.70;;;426.17;;
54641;SDS011;40536;53.194;5.728;2023-11-19T02:51:05;468.20;;;440.98;;
54641;SDS011;40536;53.194;5.728;2023-11-19T02:53:34;452.60;;;426.30;;
54641;SDS011;40536;53.194;5.728;2023-11-19T02:56:00;478.40;;;450.77;;
54641;SDS011;40536;53.194;5.728;2023-11-19T02:58:31;433.75;;;408.48;;
54641;SDS011;40536;53.194;5.728;2023-11-19T03:00:57;469.42;;;443.13;;
54641;SDS011;40536;53.194;5.728;2023-11-19T03:03:24;434.20;;;408.77;;
54641;SDS011;40536;53.194;5.728;2023-11-19T03:06:03;472.70;;;445.95;;
54641;SDS011;40536;53.194;5.728;2023-11-19T03:08:30;514.10;;;484.65;;
54641;SDS011;40536;53.194;5.728;2023-11-19T03:10:56;488.45;;;460.63;;
54641;SDS011;40536;53.194;5.728;2023-11-19T03:13:21;495.02;;;465.98;;
54641;SDS011;40536;53.194;5.728;2023-11-19T03:15:47;510.25;;;480.83;;
54641;SDS011;40536;53.194;5.728;2023-11-19T03:18:13;527.92;;;496.92;;
54641;SDS011;40536;53.194;5.728;2023-11-19T03:20:38;495.65;;;466.23;;
54641;SDS011;40536;53.194;5.728;2023-11-19T03:23:04;501.50;;;472.58;;
54641;SDS011;40536;53.194;5.728;2023-11-19T03:25:31;434.75;;;408.13;;
54641;SDS011;40536;53.194;5.728;2023-11-19T03:28:01;456.27;;;429.48;;
54641;SDS011;40536;53.194;5.728;2023-11-19T03:30:28;437.67;;;411.83;;
54641;SDS011;40536;53.194;5.728;2023-11-19T03:32:55;403.23;;;380.05;;
54641;SDS011;40536;53.194;5.728;2023-11-19T03:35:21;351.70;;;331.90;;
54641;SDS011;40536;53.194;5.728;2023-11-19T03:37:48;376.02;;;355.42;;
54641;SDS011;40536;53.194;5.728;2023-11-19T03:40:13;325.42;;;305.75;;
54641;SDS011;40536;53.194;5.728;2023-11-19T03:42:39;314.80;;;296.30;;
54641;SDS011;40536;53.194;5.728;2023-11-19T03:45:06;281.13;;;265.17;;
54641;SDS011;40536;53.194;5.728;2023-11-19T03:47:34;287.90;;;269.35;;
54641;SDS011;40536;53.194;5.728;2023-11-19T03:50:00;228.07;;;214.43;;
54641;SDS011;40536;53.194;5.728;2023-11-19T03:52:26;276.08;;;259.83;;
54641;SDS011;40536;53.194;5.728;2023-11-19T03:54:52;216.48;;;202.45;;
54641;SDS011;40536;53.194;5.728;2023-11-19T03:57:19;177.25;;;165.18;;
54641;SDS011;40536;53.194;5.728;2023-11-19T03:59:45;172.52;;;160.68;;
54641;SDS011;40536;53.194;5.728;2023-11-19T04:02:11;164.73;;;152.77;;
54641;SDS011;40536;53.194;5.728;2023-11-19T04:04:36;131.27;;;120.63;;
54641;SDS011;40536;53.194;5.728;2023-11-19T04:07:04;151.10;;;141.20;;
54641;SDS011;40536;53.194;5.728;2023-11-19T04:09:30;150.38;;;139.98;;
54641;SDS011;40536;53.194;5.728;2023-11-19T04:11:58;163.13;;;152.35;;
54641;SDS011;40536;53.194;5.728;2023-11-19T04:14:24;187.10;;;174.75;;
54641;SDS011;40536;53.194;5.728;2023-11-19T04:16:50;211.32;;;197.23;;
54641;SDS011;40536;53.194;5.728;2023-11-19T04:19:16;173.70;;;162.60;;
54641;SDS011;40536;53.194;5.728;2023-11-19T04:21:42;209.15;;;196.02;;
54641;SDS011;40536;53.194;5.728;2023-11-19T04:24:08;224.10;;;210.02;;
54641;SDS011;40536;53.194;5.728;2023-11-19T04:26:41;201.70;;;189.25;;
54641;SDS011;40536;53.194;5.728;2023-11-19T04:29:12;275.10;;;256.23;;
54641;SDS011;40536;53.194;5.728;2023-11-19T04:31:40;232.73;;;218.52;;
54641;SDS011;40536;53.194;5.728;2023-11-19T04:34:06;209.30;;;195.52;;
54641;SDS011;40536;53.194;5.728;2023-11-19T04:36:32;228.90;;;214.90;;
54641;SDS011;40536;53.194;5.728;2023-11-19T04:38:59;199.30;;;186.82;;
54641;SDS011;40536;53.194;5.728;2023-11-19T04:41:25;193.00;;;180.75;;
54641;SDS011;40536;53.194;5.728;2023-11-19T04:43:54;191.07;;;177.15;;
54641;SDS011;40536;53.194;5.728;2023-11-19T04:46:20;193.25;;;181.05;;
54641;SDS011;40536;53.194;5.728;2023-11-19T04:48:46;170.55;;;158.15;;
54641;SDS011;40536;53.194;5.728;2023-11-19T04:51:12;210.30;;;195.70;;
54641;SDS011;40536;53.194;5.728;2023-11-19T04:53:37;160.13;;;148.05;;
54641;SDS011;40536;53.194;5.728;2023-11-19T04:56:09;149.82;;;136.93;;
54641;SDS011;40536;53.194;5.728;2023-11-19T04:58:36;165.85;;;154.50;;
54641;SDS011;40536;53.194;5.728;2023-11-19T05:01:02;151.77;;;140.98;;
54641;SDS011;40536;53.194;5.728;2023-11-19T05:03:29;192.57;;;178.23;;
54641;SDS011;40536;53.194;5.728;2023-11-19T05:05:58;155.95;;;144.35;;
54641;SDS011;40536;53.194;5.728;2023-11-19T05:08:24;181.00;;;168.75;;
54641;SDS011;40536;53.194;5.728;2023-11-19T05:10:50;240.88;;;223.55;;
54641;SDS011;40536;53.194;5.728;2023-11-19T05:13:16;247.10;;;230.82;;
54641;SDS011;40536;53.194;5.728;2023-11-19T05:15:42;200.65;;;185.32;;
54641;SDS011;40536;53.194;5.728;2023-11-19T05:18:08;139.77;;;129.35;;
54641;SDS011;40536;53.194;5.728;2023-11-19T05:20:34;144.75;;;133.20;;
54641;SDS011;40536;53.194;5.728;2023-11-19T05:22:59;171.25;;;159.00;;
54641;SDS011;40536;53.194;5.728;2023-11-19T05:25:25;212.77;;;196.38;;
54641;SDS011;40536;53.194;5.728;2023-11-19T05:27:52;132.10;;;121.55;;
54641;SDS011;40536;53.194;5.728;2023-11-19T05:30:18;197.23;;;182.77;;
54641;SDS011;40536;53.194;5.728;2023-11-19T05:32:43;120.47;;;111.93;;
54641;SDS011;40536;53.194;5.728;2023-11-19T05:35:09;125.07;;;114.63;;
54641;SDS011;40536;53.194;5.728;2023-11-19T05:37:36;205.88;;;190.98;;
54641;SDS011;40536;53.194;5.728;2023-11-19T05:40:01;121.28;;;111.13;;
54641;SDS011;40536;53.194;5.728;2023-11-19T05:42:29;111.63;;;102.45;;
54641;SDS011;40536;53.194;5.728;2023-11-19T05:44:55;171.60;;;158.00;;
54641;SDS011;40536;53.194;5.728;2023-11-19T05:47:21;99.47;;;90.53;;
54641;SDS011;40536;53.194;5.728;2023-11-19T05:49:46;148.75;;;135.20;;
54641;SDS011;40536;53.194;5.728;2023-11-19T05:52:12;159.48;;;146.02;;
54641;SDS011;40536;53.194;5.728;2023-11-19T05:54:38;95.07;;;85.55;;
54641;SDS011;40536;53.194;5.728;2023-11-19T05:57:04;91.38;;;83.82;;
54641;SDS011;40536;53.194;5.728;2023-11-19T05:59:30;96.13;;;85.47;;
54641;SDS011;40536;53.194;5.728;2023-11-19T06:01:58;96.75;;;87.32;;
54641;SDS011;40536;53.194;5.728;2023-11-19T06:04:25;94.82;;;86.25;;
54641;SDS011;40536;53.194;5.728;2023-11-19T06:06:52;108.53;;;93.20;;
54641;SDS011;40536;53.194;5.728;2023-11-19T06:09:20;161.35;;;148.55;;
54641;SDS011;40536;53.194;5.728;2023-11-19T06:11:48;113.28;;;104.25;;
54641;SDS011;40536;53.194;5.728;2023-11-19T06:14:16;134.77;;;124.80;;
54641;SDS011;40536;53.194;5.728;2023-11-19T06:16:41;156.88;;;142.50;;
54641;SDS011;40536;53.194;5.728;2023-11-19T06:19:07;106.53;;;96.60;;
54641;SDS011;40536;53.194;5.728;2023-11-19T06:21:33;110.03;;;100.03;;
54641;SDS011;40536;53.194;5.728;2023-11-19T06:24:00;118.47;;;109.22;;
54641;SDS011;40536;53.194;5.728;2023-11-19T06:26:27;99.55;;;90.75;;
54641;SDS011;40536;53.194;5.728;2023-11-19T06:28:53;92.75;;;84.45;;
54641;SDS011;40536;53.194;5.728;2023-11-19T06:31:20;108.53;;;99.45;;
54641;SDS011;40536;53.194;5.728;2023-11-19T06:33:46;91.75;;;82.93;;
54641;SDS011;40536;53.194;5.728;2023-11-19T06:36:14;102.60;;;92.15;;
54641;SDS011;40536;53.194;5.728;2023-11-19T06:38:41;91.20;;;83.80;;
54641;SDS011;40536;53.194;5.728;2023-11-19T06:41:07;88.97;;;81.25;;
54641;SDS011;40536;53.194;5.728;2023-11-19T06:43:37;107.65;;;99.05;;
54641;SDS011;40536;53.194;5.728;2023-11-19T06:46:02;156.45;;;142.30;;
54641;SDS011;40536;53.194;5.728;2023-11-19T06:48:31;117.65;;;108.75;;
54641;SDS011;40536;53.194;5.728;2023-11-19T06:50:57;91.85;;;83.32;;
54641;SDS011;40536;53.194;5.728;2023-11-19T06:53:24;85.32;;;77.68;;
54641;SDS011;40536;53.194;5.728;2023-11-19T06:55:50;96.57;;;87.03;;
54641;SDS011;40536;53.194;5.728;2023-11-19T06:58:15;237.82;;;219.15;;
54641;SDS011;40536;53.194;5.728;2023-11-19T07:00:43;82.43;;;74.65;;
54641;SDS011;40536;53.194;5.728;2023-11-19T07:03:08;162.77;;;150.25;;
54641;SDS011;40536;53.194;5.728;2023-11-19T07:05:35;83.40;;;75.43;;
54641;SDS011;40536;53.194;5.728;2023-11-19T07:08:04;92.88;;;84.32;;
54641;SDS011;40536;53.194;5.728;2023-11-19T07:10:32;79.60;;;71.75;;
54641;SDS011;40536;53.194;5.728;2023-11-19T07:12:58;149.32;;;136.45;;
54641;SDS011;40536;53.194;5.728;2023-11-19T07:15:24;78.85;;;71.72;;
54641;SDS011;40536;53.194;5.728;2023-11-19T07:17:50;77.50;;;68.45;;
54641;SDS011;40536;53.194;5.728;2023-11-19T07:20:15;74.97;;;67.38;;
54641;SDS011;40536;53.194;5.728;2023-11-19T07:22:44;100.18;;;91.55;;
54641;SDS011;40536;53.194;5.728;2023-11-19T07:25:12;69.47;;;62.85;;
54641;SDS011;40536;53.194;5.728;2023-11-19T07:27:38;264.35;;;243.10;;
54641;SDS011;40536;53.194;5.728;2023-11-19T07:30:04;77.38;;;70.40;;
54641;SDS011;40536;53.194;5.728;2023-11-19T07:32:32;95.90;;;87.65;;
54641;SDS011;40536;53.194;5.728;2023-11-19T07:34:58;104.95;;;94.63;;
54641;SDS011;40536;53.194;5.728;2023-11-19T07:37:24;115.65;;;106.25;;
54641;SDS011;40536;53.194;5.728;2023-11-19T07:39:50;145.73;;;134.27;;
54641;SDS011;40536;53.194;5.728;2023-11-19T07:42:16;105.93;;;96.18;;
54641;SDS011;40536;53.194;5.728;2023-11-19T07:44:42;94.65;;;86.90;;
54641;SDS011;40536;53.194;5.728;2023-11-19T07:47:11;102.35;;;93.32;;
54641;SDS011;40536;53.194;5.728;2023-11-19T07:49:37;157.30;;;144.95;;
54641;SDS011;40536;53.194;5.728;2023-11-19T07:52:04;94.13;;;86.07;;
54641;SDS011;40536;53.194;5.728;2023-11-19T07:54:30;102.45;;;93.85;;
54641;SDS011;40536;53.194;5.728;2023-11-19T07:56:55;124.50;;;114.03;;
54641;SDS011;40536;53.194;5.728;2023-11-19T07:59:21;103.10;;;94.47;;
54641;SDS011;40536;53.194;5.728;2023-11-19T08:01:47;124.60;;;113.43;;
54641;SDS011;40536;53.194;5.728;2023-11-19T08:04:12;87.00;;;79.53;;
54641;SDS011;40536;53.194;5.728;2023-11-19T08:06:40;112.57;;;103.18;;
54641;SDS011;40536;53.194;5.728;2023-11-19T08:09:06;96.78;;;89.43;;
54641;SDS011;40536;53.194;5.728;2023-11-19T08:11:32;167.27;;;153.25;;
54641;SDS011;40536;53.194;5.728;2023-11-19T08:13:58;157.55;;;144.38;;
54641;SDS011;40536;53.194;5.728;2023-11-19T08:16:24;89.20;;;82.03;;
54641;SDS011;40536;53.194;5.728;2023-11-19T08:18:50;98.07;;;89.32;;
54641;SDS011;40536;53.194;5.728;2023-11-19T08:21:15;89.72;;;81.65;;
54641;SDS011;40536;53.194;5.728;2023-11-19T08:23:41;120.45;;;111.32;;
54641;SDS011;40536;53.194;5.728;2023-11-19T08:26:07;122.10;;;110.78;;
54641;SDS011;40536;53.194;5.728;2023-11-19T08:28:32;84.55;;;76.80;;
54641;SDS011;40536;53.194;5.728;2023-11-19T08:30:59;169.65;;;155.93;;
54641;SDS011;40536;53.194;5.728;2023-11-19T08:33:26;84.28;;;76.38;;
54641;SDS011;40536;53.194;5.728;2023-11-19T08:35:52;84.25;;;75.78;;
54641;SDS011;40536;53.194;5.728;2023-11-19T08:38:18;105.20;;;97.18;;
54641;SDS011;40536;53.194;5.728;2023-11-19T08:40:46;98.25;;;89.85;;
54641;SDS011;40536;53.194;5.728;2023-11-19T08:43:12;145.57;;;133.20;;
54641;SDS011;40536;53.194;5.728;2023-11-19T08:45:37;85.88;;;76.95;;
54641;SDS011;40536;53.194;5.728;2023-11-19T08:48:03;165.95;;;152.18;;
54641;SDS011;40536;53.194;5.728;2023-11-19T08:50:29;105.70;;;96.05;;
54641;SDS011;40536;53.194;5.728;2023-11-19T08:52:55;118.05;;;109.10;;
54641;SDS011;40536;53.194;5.728;2023-11-19T08:55:21;111.88;;;102.18;;
54641;SDS011;40536;53.194;5.728;2023-11-19T08:57:47;104.60;;;95.97;;
54641;SDS011;40536;53.194;5.728;2023-11-19T09:00:12;121.88;;;110.70;;
54641;SDS011;40536;53.194;5.728;2023-11-19T09:02:39;120.28;;;110.45;;
54641;SDS011;40536;53.194;5.728;2023-11-19T09:05:05;105.07;;;96.15;;
54641;SDS011;40536;53.194;5.728;2023-11-19T09:07:32;146.60;;;135.27;;
54641;SDS011;40536;53.194;5.728;2023-11-19T09:09:58;109.75;;;102.22;;
54641;SDS011;40536;53.194;5.728;2023-11-19T09:12:24;132.05;;;121.18;;
54641;SDS011;40536;53.194;5.728;2023-11-19T09:14:49;127.05;;;116.97;;
54641;SDS011;40536;53.194;5.728;2023-11-19T09:17:16;118.45;;;109.13;;
54641;SDS011;40536;53.194;5.728;2023-11-19T09:19:43;116.85;;;107.10;;
54641;SDS011;40536;53.194;5.728;2023-11-19T09:22:08;98.63;;;90.15;;
54641;SDS011;40536;53.194;5.728;2023-11-19T09:24:34;151.77;;;139.95;;
54641;SDS011;40536;53.194;5.728;2023-11-19T09:27:00;90.72;;;83.03;;
54641;SDS011;40536;53.194;5.728;2023-11-19T09:29:25;99.65;;;91.40;;
54641;SDS011;40536;53.194;5.728;2023-11-19T09:31:51;95.30;;;86.72;;
54641;SDS011;40536;53.194;5.728;2023-11-19T09:34:17;90.40;;;82.60;;
54641;SDS011;40536;53.194;5.728;2023-11-19T09:36:42;105.47;;;96.32;;
54641;SDS011;40536;53.194;5.728;2023-11-19T09:39:12;86.05;;;77.57;;
54641;SDS011;40536;53.194;5.728;2023-11-19T09:41:42;100.03;;;93.10;;
54641;SDS011;40536;53.194;5.728;2023-11-19T09:44:11;86.45;;;79.15;;
54641;SDS011;40536;53.194;5.728;2023-11-19T09:46:38;111.97;;;103.30;;
54641;SDS011;40536;53.194;5.728;2023-11-19T09:49:06;89.75;;;81.60;;
54641;SDS011;40536;53.194;5.728;2023-11-19T09:51:34;50.88;;;44.55;;
54641;SDS011;40536;53.194;5.728;2023-11-19T09:54:01;64.25;;;56.40;;
54641;SDS011;40536;53.194;5.728;2023-11-19T09:56:27;78.47;;;71.25;;
54641;SDS011;40536;53.194;5.728;2023-11-19T09:58:58;53.45;;;47.78;;
54641;SDS011;40536;53.194;5.728;2023-11-19T10:01:24;61.55;;;46.95;;
54641;SDS011;40536;53.194;5.728;2023-11-19T10:03:50;86.53;;;79.30;;
54641;SDS011;40536;53.194;5.728;2023-11-19T10:06:25;74.60;;;66.28;;
54641;SDS011;40536;53.194;5.728;2023-11-19T10:08:52;89.55;;;81.30;;
54641;SDS011;40536;53.194;5.728;2023-11-19T10:11:18;59.70;;;53.60;;
54641;SDS011;40536;53.194;5.728;2023-11-19T10:13:43;85.53;;;77.28;;
54641;SDS011;40536;53.194;5.728;2023-11-19T10:16:12;81.18;;;74.35;;
54641;SDS011;40536;53.194;5.728;2023-11-19T10:18:48;77.15;;;69.57;;
54641;SDS011;40536;53.194;5.728;2023-11-19T10:21:19;49.45;;;44.53;;
54641;SDS011;40536;53.194;5.728;2023-11-19T10:23:48;54.35;;;44.30;;
54641;SDS011;40536;53.194;5.728;2023-11-19T10:26:19;124.50;;;115.40;;
54641;SDS011;40536;53.194;5.728;2023-11-19T10:28:46;107.72;;;98.68;;
54641;SDS011;40536;53.194;5.728;2023-11-19T10:31:16;84.63;;;77.65;;
54641;SDS011;40536;53.194;5.728;2023-11-19T10:33:43;63.20;;;56.78;;
54641;SDS011;40536;53.194;5.728;2023-11-19T10:36:10;98.63;;;90.80;;
54641;SDS011;40536;53.194;5.728;2023-11-19T10:38:40;78.75;;;71.95;;
54641;SDS011;40536;53.194;5.728;2023-11-19T10:41:06;64.40;;;58.85;;
54641;SDS011;40536;53.194;5.728;2023-11-19T10:43:42;68.07;;;61.60;;
54641;SDS011;40536;53.194;5.728;2023-11-19T10:46:12;83.07;;;75.13;;
54641;SDS011;40536;53.194;5.728;2023-11-19T10:48:39;48.17;;;42.13;;
54641;SDS011;40536;53.194;5.728;2023-11-19T10:51:05;54.85;;;46.83;;
54641;SDS011;40536;53.194;5.728;2023-11-19T10:53:36;63.03;;;56.60;;
54641;SDS011;40536;53.194;5.728;2023-11-19T10:56:04;50.08;;;43.08;;
54641;SDS011;40536;53.194;5.728;2023-11-19T10:58:35;76.97;;;69.73;;
54641;SDS011;40536;53.194;5.728;2023-11-19T11:01:03;65.40;;;51.70;;
54641;SDS011;40536;53.194;5.728;2023-11-19T11:03:39;66.00;;;59.53;;
54641;SDS011;40536;53.194;5.728;2023-11-19T11:06:06;46.95;;;41.53;;
54641;SDS011;40536;53.194;5.728;2023-11-19T11:08:32;68.55;;;62.45;;
54641;SDS011;40536;53.194;5.728;2023-11-19T11:11:01;60.63;;;54.58;;
54641;SDS011;40536;53.194;5.728;2023-11-19T11:13:29;79.93;;;72.97;;
54641;SDS011;40536;53.194;5.728;2023-11-19T11:15:56;61.05;;;54.30;;
54641;SDS011;40536;53.194;5.728;2023-11-19T11:18:23;158.25;;;145.98;;
54641;SDS011;40536;53.194;5.728;2023-11-19T11:21:00;62.30;;;47.20;;
54641;SDS011;40536;53.194;5.728;2023-11-19T11:23:44;58.15;;;50.13;;
54641;SDS011;40536;53.194;5.728;2023-11-19T11:29:31;61.22;;;51.35;;
54641;SDS011;40536;53.194;5.728;2023-11-19T11:32:16;71.28;;;63.28;;
54641;SDS011;40536;53.194;5.728;2023-11-19T11:35:02;71.47;;;54.30;;
54641;SDS011;40536;53.194;5.728;2023-11-19T11:37:49;81.38;;;74.07;;
54641;SDS011;40536;53.194;5.728;2023-11-19T11:40:24;93.45;;;85.28;;
54641;SDS011;40536;53.194;5.728;2023-11-19T11:42:51;67.82;;;61.50;;
54641;SDS011;40536;53.194;5.728;2023-11-19T11:45:17;76.88;;;69.90;;
54641;SDS011;40536;53.194;5.728;2023-11-19T11:50:19;112.65;;;103.75;;
54641;SDS011;40536;53.194;5.728;2023-11-19T11:57:59;55.00;;;42.35;;
54641;SDS011;40536;53.194;5.728;2023-11-19T12:02:55;54.03;;;48.47;;
54641;SDS011;40536;53.194;5.728;2023-11-19T12:05:22;64.10;;;58.20;;
54641;SDS011;40536;53.194;5.728;2023-11-19T12:07:54;41.92;;;37.25;;
54641;SDS011;40536;53.194;5.728;2023-11-19T12:10:26;42.85;;;37.05;;
54641;SDS011;40536;53.194;5.728;2023-11-19T12:12:58;67.35;;;60.75;;
54641;SDS011;40536;53.194;5.728;2023-11-19T12:15:25;78.05;;;71.18;;
54641;SDS011;40536;53.194;5.728;2023-11-19T12:17:52;79.68;;;72.75;;
54641;SDS011;40536;53.194;5.728;2023-11-19T12:20:22;58.38;;;52.63;;
54641;SDS011;40536;53.194;5.728;2023-11-19T12:22:50;88.20;;;81.47;;
54641;SDS011;40536;53.194;5.728;2023-11-19T12:25:17;66.18;;;59.72;;
54641;SDS011;40536;53.194;5.728;2023-11-19T12:27:45;45.95;;;39.38;;
54641;SDS011;40536;53.194;5.728;2023-11-19T12:30:16;115.82;;;106.50;;
54641;SDS011;40536;53.194;5.728;2023-11-19T12:32:43;83.15;;;75.47;;
54641;SDS011;40536;53.194;5.728;2023-11-19T12:35:10;75.03;;;69.10;;
54641;SDS011;40536;53.194;5.728;2023-11-19T12:37:44;49.78;;;42.58;;
54641;SDS011;40536;53.194;5.728;2023-11-19T12:42:38;91.70;;;82.25;;
54641;SDS011;40536;53.194;5.728;2023-11-19T12:45:04;50.60;;;45.40;;
54641;SDS011;40536;53.194;5.728;2023-11-19T12:47:30;79.50;;;72.43;;
54641;SDS011;40536;53.194;5.728;2023-11-19T12:49:56;88.05;;;80.05;;
54641;SDS011;40536;53.194;5.728;2023-11-19T12:52:22;112.85;;;104.15;;
54641;SDS011;40536;53.194;5.728;2023-11-19T12:54:48;79.40;;;72.97;;
54641;SDS011;40536;53.194;5.728;2023-11-19T12:57:14;154.30;;;143.68;;
54641;SDS011;40536;53.194;5.728;2023-11-19T12:59:40;72.47;;;65.03;;
54641;SDS011;40536;53.194;5.728;2023-11-19T13:02:07;121.30;;;111.43;;
54641;SDS011;40536;53.194;5.728;2023-11-19T13:04:33;99.57;;;92.10;;
54641;SDS011;40536;53.194;5.728;2023-11-19T13:06:59;102.15;;;93.78;;
54641;SDS011;40536;53.194;5.728;2023-11-19T13:09:26;85.80;;;79.15;;
54641;SDS011;40536;53.194;5.728;2023-11-19T13:11:53;76.60;;;69.70;;
54641;SDS011;40536;53.194;5.728;2023-11-19T13:14:19;119.55;;;111.03;;
54641;SDS011;40536;53.194;5.728;2023-11-19T13:16:45;59.85;;;54.13;;
54641;SDS011;40536;53.194;5.728;2023-11-19T13:19:12;65.47;;;59.00;;
54641;SDS011;40536;53.194;5.728;2023-11-19T13:21:38;58.90;;;52.75;;
54641;SDS011;40536;53.194;5.728;2023-11-19T13:24:07;83.50;;;77.05;;
54641;SDS011;40536;53.194;5.728;2023-11-19T13:26:33;66.60;;;61.45;;
54641;SDS011;40536;53.194;5.728;2023-11-19T13:28:59;82.25;;;76.25;;
54641;SDS011;40536;53.194;5.728;2023-11-19T13:31:25;137.95;;;128.68;;
54641;SDS011;40536;53.194;5.728;2023-11-19T13:33:53;109.93;;;101.70;;
54641;SDS011;40536;53.194;5.728;2023-11-19T13:36:18;84.07;;;77.68;;
54641;SDS011;40536;53.194;5.728;2023-11-19T13:38:44;119.43;;;110.57;;
54641;SDS011;40536;53.194;5.728;2023-11-19T13:41:11;98.68;;;90.90;;
54641;SDS011;40536;53.194;5.728;2023-11-19T13:43:38;83.22;;;76.85;;
54641;SDS011;40536;53.194;5.728;2023-11-19T13:46:04;98.25;;;89.82;;
54641;SDS011;40536;53.194;5.728;2023-11-19T13:48:30;106.10;;;97.90;;
54641;SDS011;40536;53.194;5.728;2023-11-19T13:51:14;119.15;;;109.07;;
54641;SDS011;40536;53.194;5.728;2023-11-19T13:53:40;66.65;;;60.50;;
54641;SDS011;40536;53.194;5.728;2023-11-19T13:56:05;77.53;;;70.75;;
54641;SDS011;40536;53.194;5.728;2023-11-19T13:58:32;71.65;;;64.88;;
54641;SDS011;40536;53.194;5.728;2023-11-19T14:00:57;77.20;;;69.80;;
54641;SDS011;40536;53.194;5.728;2023-11-19T14:03:23;62.78;;;57.13;;
54641;SDS011;40536;53.194;5.728;2023-11-19T14:05:49;63.70;;;58.45;;
54641;SDS011;40536;53.194;5.728;2023-11-19T14:08:17;88.82;;;80.97;;
54641;SDS011;40536;53.194;5.728;2023-11-19T14:10:43;73.05;;;67.55;;
54641;SDS011;40536;53.194;5.728;2023-11-19T14:13:09;68.10;;;61.85;;
54641;SDS011;40536;53.194;5.728;2023-11-19T14:15:37;89.38;;;82.03;;
54641;SDS011;40536;53.194;5.728;2023-11-19T14:18:02;113.00;;;104.07;;
54641;SDS011;40536;53.194;5.728;2023-11-19T14:20:29;63.15;;;57.58;;
54641;SDS011;40536;53.194;5.728;2023-11-19T14:22:55;63.38;;;57.90;;